createdAt,value
2019-04-05T00:02:36.333Z,5.36
2019-04-05T00:05:25.171Z,5.43
2019-04-05T00:08:14.073Z,5.44
2019-04-05T00:10:55.939Z,5.43
2019-04-05T00:13:44.758Z,5.40
2019-04-05T00:16:33.587Z,5.38
2019-04-05T00:19:22.393Z,5.44
2019-04-05T00:22:11.241Z,5.47
2019-04-05T00:25:00.080Z,5.44
2019-04-05T00:27:48.938Z,5.42
2019-04-05T00:30:37.787Z,5.44
2019-04-05T00:33:26.608Z,5.45
2019-04-05T00:36:15.463Z,5.36
2019-04-05T00:42:32.592Z,5.37
2019-04-05T00:45:28.165Z,5.36
2019-04-05T00:48:31.133Z,5.37
2019-04-05T00:51:19.972Z,5.39
2019-04-05T00:54:08.793Z,5.38
2019-04-05T00:57:16.725Z,5.35
2019-04-05T01:00:26.427Z,5.31
2019-04-05T01:03:15.337Z,5.38
2019-04-05T01:06:04.254Z,5.40
2019-04-05T01:08:53.152Z,5.39
2019-04-05T01:11:35.462Z,5.36
2019-04-05T01:30:38.237Z,5.45
2019-04-05T01:33:07.867Z,5.47
2019-04-05T01:35:56.694Z,5.41
2019-04-05T01:38:45.604Z,5.43
2019-04-05T01:45:02.811Z,5.50
2019-04-05T01:47:51.614Z,5.46
2019-04-05T01:50:40.468Z,5.42
2019-04-05T01:53:29.467Z,5.45
2019-04-05T01:56:18.311Z,5.40
2019-04-05T01:59:07.133Z,5.36
2019-04-05T02:01:56.056Z,5.36
2019-04-05T02:04:44.957Z,5.31
2019-04-05T02:07:33.869Z,5.38
2019-04-05T02:10:22.750Z,5.45
2019-04-05T02:13:05.480Z,5.44
2019-04-05T02:16:05.599Z,5.41
2019-04-05T02:19:04.017Z,5.51
2019-04-05T02:21:52.903Z,5.54
2019-04-05T02:24:41.738Z,5.44
2019-04-05T02:30:57.432Z,5.40
2019-04-05T02:33:46.347Z,5.37
2019-04-05T02:36:35.332Z,5.38
2019-04-05T02:39:24.228Z,5.33
2019-04-05T02:42:13.215Z,5.27
2019-04-05T03:01:16.482Z,5.28
2019-04-05T03:04:05.356Z,5.27
2019-04-05T03:06:54.267Z,5.37
2019-04-05T03:09:43.380Z,5.44
2019-04-05T03:12:25.985Z,5.35
2019-04-05T03:15:14.863Z,5.26
2019-04-05T03:18:03.779Z,5.20
2019-04-05T03:30:38.347Z,5.25
2019-04-05T03:33:27.196Z,5.27
2019-04-05T03:36:36.587Z,5.24
2019-04-05T03:39:25.430Z,5.24
2019-04-05T03:45:29.550Z,5.14
2019-04-05T03:51:46.742Z,5.13
2019-04-05T03:54:35.961Z,5.13
2019-04-05T03:57:24.830Z,5.07
2019-04-05T04:03:28.961Z,5.09
2019-04-05T04:06:17.850Z,5.06
2019-04-05T04:09:07.122Z,5.00
2019-04-05T04:11:49.512Z,4.99
2019-04-05T04:21:42.169Z,4.95
2019-04-05T04:27:59.444Z,5.04
2019-04-05T04:30:48.468Z,5.08
2019-04-05T04:33:37.373Z,5.18
2019-04-05T04:42:55.873Z,5.21
2019-04-05T04:45:44.761Z,5.24
2019-04-05T04:48:33.659Z,5.24
2019-04-05T04:51:22.673Z,5.23
2019-04-05T04:57:26.792Z,5.17
2019-04-05T05:03:44.010Z,5.22
2019-04-05T05:06:32.812Z,5.17
2019-04-05T05:09:21.666Z,5.12
2019-04-05T05:12:03.177Z,5.17
2019-04-05T05:14:52.079Z,5.24
2019-04-05T05:17:40.919Z,5.17
2019-04-05T05:20:29.823Z,5.13
2019-04-05T05:26:46.969Z,5.19
2019-04-05T05:29:35.845Z,5.18
2019-04-05T05:38:54.484Z,5.26
2019-04-05T05:41:43.370Z,5.31
2019-04-05T05:44:33.759Z,5.38
2019-04-05T05:47:22.586Z,5.44
2019-04-05T05:53:26.086Z,5.65
2019-04-05T05:56:14.901Z,5.72
2019-04-05T05:59:03.904Z,5.74
2019-04-05T06:01:52.721Z,5.85
2019-04-05T06:05:00.589Z,5.90
2019-04-05T06:07:49.414Z,5.93
2019-04-05T06:10:38.259Z,5.86
2019-04-05T06:13:19.644Z,5.92
2019-04-05T06:16:08.486Z,6.14
2019-04-05T06:18:57.318Z,6.17
2019-04-05T06:21:46.161Z,6.21
2019-04-05T06:24:35.081Z,6.23
2019-04-05T06:27:23.911Z,6.26
2019-04-05T06:30:12.885Z,6.25
2019-04-05T06:33:01.725Z,6.24
2019-04-05T06:36:02.581Z,6.25
2019-04-05T06:38:41.173Z,6.26
2019-04-05T06:41:30.061Z,6.19
2019-04-05T06:44:19.028Z,6.21
2019-04-05T06:47:07.883Z,6.27
2019-04-05T06:49:56.724Z,6.33
2019-04-05T06:52:45.559Z,6.35
2019-04-05T06:55:53.762Z,6.21
2019-04-05T06:58:42.594Z,6.35
2019-04-05T07:01:31.479Z,6.43
2019-04-05T07:04:20.299Z,6.53
2019-04-05T07:07:09.221Z,6.59
2019-04-05T07:09:58.037Z,6.83
2019-04-05T07:12:39.789Z,7.12
2019-04-05T07:15:28.612Z,7.42
2019-04-05T07:18:17.457Z,7.57
2019-04-05T07:21:06.322Z,7.56
2019-04-05T07:23:55.207Z,7.98
2019-04-05T07:26:44.059Z,7.93
2019-04-05T07:29:32.889Z,8.48
2019-04-05T07:32:21.748Z,8.22
2019-04-05T07:35:10.744Z,8.74
2019-04-05T07:37:59.596Z,9.05
2019-04-05T07:40:48.444Z,9.06
2019-04-05T07:43:37.255Z,9.73
2019-04-05T07:46:26.142Z,9.74
2019-04-05T07:49:14.961Z,11.01
2019-04-05T07:52:03.858Z,11.88
2019-04-05T07:58:21.072Z,13.02
2019-04-05T08:01:10.009Z,14.34
2019-04-05T08:03:58.854Z,14.17
2019-04-05T08:13:11.618Z,14.13
2019-04-05T08:16:01.429Z,14.32
2019-04-05T08:18:57.674Z,13.00
2019-04-05T08:21:41.723Z,12.98
2019-04-05T08:24:30.570Z,12.78
2019-04-05T08:27:19.389Z,13.78
2019-04-05T08:30:08.368Z,12.47
2019-04-05T08:32:57.194Z,12.89
2019-04-05T08:35:46.062Z,13.04
2019-04-05T08:38:34.970Z,12.09
2019-04-05T08:41:23.889Z,12.37
2019-04-05T08:44:12.759Z,13.77
2019-04-05T08:47:01.647Z,12.92
2019-04-05T08:49:50.489Z,13.90
2019-04-05T08:52:39.371Z,12.60
2019-04-05T08:55:28.270Z,12.56
2019-04-05T08:58:17.127Z,12.53
2019-04-05T09:01:05.953Z,12.03
2019-04-05T09:03:54.800Z,12.64
2019-04-05T09:06:43.627Z,12.41
2019-04-05T09:09:32.509Z,11.80
2019-04-05T09:12:21.318Z,11.73
2019-04-05T09:15:03.013Z,12.11
2019-04-05T09:17:51.853Z,11.94
2019-04-05T09:20:40.710Z,11.91
2019-04-05T09:23:29.541Z,12.32
2019-04-05T09:26:18.489Z,12.42
2019-04-05T09:29:09.268Z,11.70
2019-04-05T09:31:57.902Z,11.89
2019-04-05T09:34:46.805Z,12.10
2019-04-05T09:37:35.731Z,11.93
2019-04-05T09:40:24.631Z,11.71
2019-04-05T09:43:13.479Z,12.00
2019-04-05T09:46:02.417Z,12.64
2019-04-05T09:48:51.355Z,12.33
2019-04-05T09:51:40.188Z,11.97
2019-04-05T09:54:29.022Z,12.57
2019-04-05T09:57:17.853Z,13.74
2019-04-05T10:03:27.335Z,14.25
2019-04-05T10:06:16.184Z,14.15
2019-04-05T10:09:25.931Z,13.10
2019-04-05T10:12:14.771Z,13.17
2019-04-05T10:14:56.397Z,13.09
2019-04-05T10:17:45.264Z,14.13
2019-04-05T10:20:34.085Z,12.49
2019-04-05T10:23:23.008Z,12.51
2019-04-05T10:26:11.850Z,12.74
2019-04-05T10:29:00.749Z,13.08
2019-04-05T10:31:49.561Z,13.65
2019-04-05T10:34:38.483Z,13.65
2019-04-05T10:37:27.312Z,14.10
2019-04-05T10:43:30.777Z,13.87
2019-04-05T10:46:19.615Z,13.89
2019-04-05T10:49:08.528Z,13.73
2019-04-05T10:51:57.355Z,13.70
2019-04-05T10:54:46.197Z,14.12
2019-04-05T10:57:35.010Z,15.07
2019-04-05T11:03:39.035Z,14.21
2019-04-05T11:06:27.882Z,13.77
2019-04-05T11:09:16.715Z,13.12
2019-04-05T11:15:28.773Z,13.34
2019-04-05T11:18:17.500Z,13.30
2019-04-05T11:21:06.314Z,12.64
2019-04-05T11:23:55.747Z,12.13
2019-04-05T11:26:45.738Z,12.75
2019-04-05T11:29:34.580Z,11.95
2019-04-05T11:32:23.434Z,11.66
2019-04-05T11:35:14.913Z,12.27
2019-04-05T11:38:02.982Z,12.45
2019-04-05T11:44:06.314Z,12.46
2019-04-05T11:50:34.842Z,12.69
2019-04-05T11:53:21.998Z,12.44
2019-04-05T11:56:15.034Z,12.26
2019-04-05T12:02:20.439Z,12.27
2019-04-05T12:08:24.412Z,11.91
2019-04-05T12:11:13.407Z,11.89
2019-04-05T12:14:02.249Z,11.72
2019-04-05T12:16:51.165Z,11.92
2019-04-05T12:19:40.017Z,12.19
2019-04-05T12:22:28.843Z,12.40
2019-04-05T12:25:17.710Z,12.21
2019-04-05T12:28:10.322Z,12.19
2019-04-05T12:30:57.188Z,12.12
2019-04-05T12:33:46.966Z,12.14
2019-04-05T12:36:36.651Z,12.49
2019-04-05T12:39:25.645Z,12.51
2019-04-05T12:42:14.562Z,12.12
2019-04-05T12:48:50.839Z,11.72
2019-04-05T12:51:58.776Z,11.81
2019-04-05T12:54:50.678Z,11.83
2019-04-05T12:57:38.288Z,11.45
2019-04-05T13:00:27.212Z,11.57
2019-04-05T13:03:16.048Z,11.65
2019-04-05T13:06:05.099Z,11.65
2019-04-05T13:08:54.500Z,11.48
2019-04-05T13:11:44.520Z,11.32
2019-04-05T13:14:26.970Z,11.05
2019-04-05T13:17:15.866Z,11.18
2019-04-05T13:20:25.589Z,11.21
2019-04-05T13:23:14.416Z,11.41
2019-04-05T13:26:03.327Z,11.43
2019-04-05T13:28:52.166Z,11.44
2019-04-05T13:31:41.064Z,11.26
2019-04-05T13:34:29.906Z,11.37
2019-04-05T13:37:20.386Z,11.34
2019-04-05T13:40:09.798Z,11.43
2019-04-05T13:43:01.647Z,11.26
2019-04-05T13:45:49.252Z,11.51
2019-04-05T13:48:40.115Z,11.51
2019-04-05T13:51:31.803Z,11.65
2019-04-05T13:54:19.247Z,12.03
2019-04-05T13:57:10.512Z,11.62
2019-04-05T13:59:58.792Z,11.51
2019-04-05T14:02:49.985Z,11.69
2019-04-05T14:05:38.326Z,11.69
2019-04-05T14:08:27.145Z,11.83
2019-04-05T14:11:16.042Z,11.61
2019-04-05T14:14:04.976Z,11.44
2019-04-05T14:16:46.992Z,11.16
2019-04-05T14:19:35.822Z,11.25
2019-04-05T14:22:24.666Z,11.39
2019-04-05T14:25:13.695Z,11.36
2019-04-05T14:28:04.653Z,11.37
2019-04-05T14:30:53.133Z,11.48
2019-04-05T14:33:42.077Z,11.60
2019-04-05T14:36:30.899Z,11.30
2019-04-05T14:39:19.801Z,11.40
2019-04-05T14:42:09.958Z,11.40
2019-04-05T14:44:59.209Z,11.43
2019-04-05T14:47:48.067Z,11.59
2019-04-05T14:50:36.982Z,11.63
2019-04-05T14:53:25.830Z,11.50
2019-04-05T14:56:14.729Z,11.90
2019-04-05T14:59:03.694Z,11.66
2019-04-05T15:01:52.554Z,11.53
2019-04-05T15:04:41.471Z,11.48
2019-04-05T15:07:30.312Z,11.31
2019-04-05T15:10:19.230Z,11.19
2019-04-05T15:13:08.078Z,11.19
2019-04-05T15:15:49.498Z,10.93
2019-04-05T15:18:38.381Z,10.84
2019-04-05T15:21:41.428Z,10.93
2019-04-05T15:24:17.845Z,10.64
2019-04-05T15:27:06.698Z,10.71
2019-04-05T15:29:56.285Z,10.62
2019-04-05T15:32:46.093Z,10.54
2019-04-05T15:35:34.934Z,10.62
2019-04-05T15:38:23.791Z,10.43
2019-04-05T15:41:12.667Z,10.38
2019-04-05T15:44:01.475Z,10.38
2019-04-05T15:46:50.319Z,10.42
2019-04-05T15:49:39.176Z,10.24
2019-04-05T15:52:31.323Z,10.46
2019-04-05T15:55:18.636Z,10.48
2019-04-05T15:58:07.496Z,10.47
2019-04-05T16:04:04.160Z,10.34
2019-04-05T16:06:53.056Z,10.34
2019-04-05T16:09:41.896Z,10.25
2019-04-05T16:12:30.735Z,10.46
2019-04-05T16:15:19.757Z,10.22
2019-04-05T16:18:08.727Z,10.19
2019-04-05T16:20:57.643Z,10.14
2019-04-05T16:23:46.479Z,10.05
2019-04-05T16:26:35.380Z,10.14
2019-04-05T16:29:24.250Z,10.08
2019-04-05T16:32:13.066Z,10.12
2019-04-05T16:35:01.915Z,9.92
2019-04-05T16:37:50.739Z,9.81
2019-04-05T16:40:39.598Z,9.98
2019-04-05T16:43:28.425Z,9.92
2019-04-05T16:46:17.272Z,9.81
2019-04-05T16:49:06.167Z,9.88
2019-04-05T16:51:55.026Z,10.05
2019-04-05T16:54:43.843Z,9.99
2019-04-05T16:57:32.689Z,9.90
2019-04-05T17:00:21.651Z,9.84
2019-04-05T17:03:10.573Z,9.83
2019-04-05T17:06:00.196Z,9.88
2019-04-05T17:08:49.039Z,9.88
2019-04-05T17:11:37.895Z,9.83
2019-04-05T17:14:27.228Z,9.71
2019-04-05T17:17:09.110Z,9.76
2019-04-05T17:19:58.191Z,9.67
2019-04-05T17:22:57.499Z,9.59
2019-04-05T17:25:48.094Z,9.66
2019-04-05T17:28:36.941Z,9.57
2019-04-05T17:31:25.773Z,9.52
2019-04-05T17:34:14.754Z,9.54
2019-04-05T17:37:03.661Z,9.52
2019-04-05T17:39:52.506Z,9.52
2019-04-05T17:42:41.367Z,9.52
2019-04-05T17:45:30.313Z,9.55
2019-04-05T17:48:19.131Z,9.55
2019-04-05T17:51:08.068Z,9.47
2019-04-05T17:53:56.922Z,9.47
2019-04-05T17:56:45.924Z,9.46
2019-04-05T17:59:34.871Z,9.39
2019-04-05T18:02:23.722Z,9.29
2019-04-05T18:05:12.582Z,9.35
2019-04-05T18:08:01.425Z,9.27
2019-04-05T18:10:50.276Z,9.22
2019-04-05T18:13:39.099Z,9.12
2019-04-05T18:16:20.933Z,9.28
2019-04-05T18:19:09.836Z,9.27
2019-04-05T18:21:58.674Z,9.18
2019-04-05T18:24:47.556Z,9.28
2019-04-05T18:27:36.430Z,9.23
2019-04-05T18:30:25.259Z,9.16
2019-04-05T18:33:14.159Z,9.13
2019-04-05T18:36:02.994Z,9.15
2019-04-05T18:38:51.855Z,9.25
2019-04-05T18:41:40.690Z,9.21
2019-04-05T18:44:29.603Z,9.21
2019-04-05T18:47:18.468Z,9.08
2019-04-05T18:53:22.850Z,9.06
2019-04-05T18:56:11.698Z,9.20
2019-04-05T18:59:00.644Z,9.17
2019-04-05T19:01:49.526Z,9.07
2019-04-05T19:04:38.491Z,9.14
2019-04-05T19:07:27.631Z,9.09
2019-04-05T19:10:16.583Z,8.98
2019-04-05T19:13:05.534Z,9.15
2019-04-05T19:15:54.386Z,9.11
2019-04-05T19:18:36.215Z,9.11
2019-04-05T19:21:25.215Z,9.11
2019-04-05T19:24:14.048Z,9.10
2019-04-05T19:27:02.877Z,9.16
2019-04-05T19:29:51.842Z,9.12
2019-04-05T19:49:44.353Z,8.98
2019-04-05T19:52:33.195Z,9.07
2019-04-05T19:58:22.460Z,9.11
2019-04-05T20:01:11.342Z,9.09
2019-04-05T20:04:00.253Z,9.01
2019-04-05T20:06:58.158Z,8.91
2019-04-05T20:09:39.718Z,9.07
2019-04-05T20:12:28.590Z,8.90
2019-04-05T20:15:17.500Z,8.98
2019-04-05T20:17:59.674Z,9.06
2019-04-05T20:20:48.584Z,8.94
2019-04-05T20:23:47.149Z,9.10
2019-04-05T20:26:28.099Z,8.98
2019-04-05T20:29:16.971Z,8.94
2019-04-05T20:32:05.909Z,8.90
2019-04-05T20:34:54.790Z,8.92
2019-04-05T20:37:43.637Z,8.90
2019-04-05T20:40:32.504Z,8.96
2019-04-05T20:43:21.338Z,8.92
2019-04-05T20:46:10.204Z,9.02
2019-04-05T20:48:59.031Z,9.00
2019-04-05T20:51:47.900Z,8.98
2019-04-05T20:54:36.755Z,8.97
2019-04-05T20:57:25.613Z,8.92
2019-04-05T21:03:42.877Z,8.84
2019-04-05T21:06:31.931Z,8.77
2019-04-05T21:09:20.767Z,8.73
2019-04-05T21:12:09.593Z,8.76
2019-04-05T21:14:58.448Z,8.68
2019-04-05T21:17:47.406Z,8.70
2019-04-05T21:20:36.356Z,8.70
2019-04-05T21:23:25.227Z,8.73
2019-04-05T21:26:14.064Z,8.77
2019-04-05T21:29:02.915Z,8.78
2019-04-05T21:31:51.735Z,8.76
2019-04-05T21:34:40.644Z,8.74
2019-04-05T21:37:29.495Z,8.71
2019-04-05T21:43:32.827Z,8.71
2019-04-05T21:46:21.681Z,8.73
2019-04-05T21:49:10.560Z,8.78
2019-04-05T21:51:59.430Z,8.70
2019-04-05T21:54:48.268Z,8.67
2019-04-05T21:57:37.163Z,8.64
2019-04-05T22:01:05.030Z,8.59
2019-04-05T22:10:26.028Z,8.51
2019-04-05T22:13:14.934Z,8.56
2019-04-05T22:16:03.879Z,8.67
2019-04-05T22:18:45.461Z,8.64
2019-04-05T22:21:34.323Z,8.75
2019-04-05T22:24:23.166Z,8.79
2019-04-05T22:27:12.035Z,8.79
2019-04-05T22:30:00.875Z,8.79
2019-04-05T22:32:49.809Z,8.80
2019-04-05T22:35:38.662Z,8.83
2019-04-05T22:38:27.511Z,8.84
2019-04-05T22:41:16.430Z,8.85
2019-04-05T22:44:05.291Z,8.79
2019-04-05T22:46:54.130Z,8.80
2019-04-05T22:49:43.118Z,8.81
2019-04-05T22:52:31.919Z,8.76
2019-04-05T22:55:20.759Z,8.75
2019-04-05T22:58:09.626Z,8.73
2019-04-05T23:00:58.468Z,8.79
2019-04-05T23:03:47.322Z,8.84
2019-04-05T23:06:36.145Z,8.83
2019-04-05T23:09:25.012Z,8.85
2019-04-05T23:12:13.884Z,8.83
2019-04-05T23:17:56.698Z,8.81
2019-04-05T23:20:38.260Z,8.81
2019-04-05T23:23:27.127Z,8.84
2019-04-05T23:26:15.971Z,8.85
2019-04-05T23:29:04.842Z,8.85
2019-04-05T23:31:53.720Z,8.82
2019-04-05T23:34:42.546Z,8.79
2019-04-05T23:37:31.405Z,8.78
2019-04-05T23:40:20.302Z,8.74
2019-04-05T23:43:09.125Z,8.68
2019-04-05T23:45:57.979Z,8.68
2019-04-05T23:48:46.832Z,8.77
2019-04-05T23:51:35.706Z,8.71
2019-04-05T23:54:24.559Z,8.76
2019-04-05T23:57:13.406Z,8.75
